District Heights, Maryland
Current Conditions -  °F | °C
As of 4:58 AM on Sunday 26 Oct 2014 (Local Time) from KADW Reporting Station
Clear Clear  
Wind Chill: 59°   Ceiling: Unl
Heat Index: 59°   Visibility: 10mi
Dew Point: 43°   Wind: 7mph
Humidity: 55%   Direction: 300°WNW
Pressure: 29.71"   Gusts: NA
Location:  38.86°N, 76.88°W
Report Text: KADW 260858Z AUTO 30006KT 10SM CLR 15/06 A2971 RMK AO2 SLP066 T01510060 51010 $
Loading
Personal Weather Stations






























Interactive Weather Map
Tropical Storm Tracking
New forecast layout! Learn more

10-Day Weather Forecast

Advertisements
Track Severe Weather on mobile